createdAt,value
2023-03-04T00:00:43.372Z,13.35
2023-03-04T00:03:11.110Z,12.85
2023-03-04T00:05:39.448Z,10.70
2023-03-04T00:08:07.295Z,13.15
2023-03-04T00:10:35.385Z,9.88
2023-03-04T00:13:22.698Z,12.48
2023-03-04T00:15:49.925Z,13.60
2023-03-04T00:18:21.500Z,16.60
2023-03-04T00:20:49.802Z,13.07
2023-03-04T00:23:17.085Z,12.73
2023-03-04T00:25:45.491Z,13.27
2023-03-04T00:28:14.589Z,13.52
2023-03-04T00:30:42.848Z,14.65
2023-03-04T00:33:10.425Z,13.48
2023-03-04T00:35:37.754Z,13.23
2023-03-04T00:38:05.385Z,16.13
2023-03-04T00:40:32.707Z,18.13
2023-03-04T00:43:00.618Z,14.57
2023-03-04T00:45:28.274Z,14.15
2023-03-04T00:47:58.431Z,14.10
2023-03-04T00:50:26.060Z,14.65
2023-03-04T00:52:53.308Z,18.95
2023-03-04T00:55:20.622Z,13.85
2023-03-04T00:57:48.239Z,15.65
2023-03-04T01:00:19.087Z,15.35
2023-03-04T01:02:46.674Z,17.98
2023-03-04T01:05:15.402Z,15.70
2023-03-04T01:07:42.701Z,12.50
2023-03-04T01:10:13.356Z,19.90
2023-03-04T01:12:41.793Z,18.17
2023-03-04T01:15:10.272Z,16.10
2023-03-04T01:17:43.539Z,13.38
2023-03-04T01:20:12.294Z,14.32
2023-03-04T01:22:39.725Z,21.65
2023-03-04T01:25:07.965Z,16.73
2023-03-04T01:27:35.655Z,15.70
2023-03-04T01:30:04.186Z,15.55
2023-03-04T01:32:32.700Z,14.50
2023-03-04T01:34:59.975Z,16.70
2023-03-04T01:37:27.303Z,17.20
2023-03-04T01:39:54.549Z,11.52
2023-03-04T01:42:22.704Z,15.93
2023-03-04T01:44:49.979Z,17.10
2023-03-04T01:47:18.934Z,15.45
2023-03-04T01:49:48.781Z,15.43
2023-03-04T01:52:16.092Z,16.25
2023-03-04T01:54:44.442Z,18.45
2023-03-04T01:57:25.667Z,16.90
2023-03-04T02:00:15.843Z,19.90
2023-03-04T02:02:43.134Z,17.63
2023-03-04T02:05:12.752Z,13.63
2023-03-04T02:07:40.326Z,15.75
2023-03-04T02:10:10.533Z,17.55
2023-03-04T02:12:38.539Z,17.95
2023-03-04T02:15:06.540Z,18.85
2023-03-04T02:17:35.228Z,13.55
2023-03-04T02:20:24.524Z,18.20
2023-03-04T02:23:12.032Z,15.52
2023-03-04T02:25:50.680Z,16.77
2023-03-04T02:28:17.985Z,18.48
2023-03-04T02:30:45.405Z,20.90
2023-03-04T02:33:17.486Z,15.43
2023-03-04T02:35:44.873Z,14.32
2023-03-04T02:38:12.319Z,17.73
2023-03-04T02:40:40.370Z,18.73
2023-03-04T02:43:10.207Z,15.43
2023-03-04T02:45:44.524Z,15.98
2023-03-04T02:48:12.922Z,17.77
2023-03-04T02:50:45.670Z,21.95
2023-03-04T02:53:13.026Z,19.35
2023-03-04T02:55:41.520Z,13.73
2023-03-04T02:58:08.804Z,15.55
2023-03-04T03:00:37.206Z,15.43
2023-03-04T03:03:04.952Z,23.65
2023-03-04T03:05:33.739Z,18.15
2023-03-04T03:08:01.062Z,15.85
2023-03-04T03:10:29.254Z,16.92
2023-03-04T03:12:56.539Z,17.77
2023-03-04T03:15:24.044Z,19.88
2023-03-04T03:17:54.255Z,18.00
2023-03-04T03:20:21.641Z,17.20
2023-03-04T03:22:48.849Z,16.98
2023-03-04T03:25:16.731Z,19.70
2023-03-04T03:27:44.191Z,17.85
2023-03-04T03:30:14.136Z,17.45
2023-03-04T03:32:41.434Z,15.50
2023-03-04T03:35:08.973Z,25.25
2023-03-04T03:37:36.497Z,19.02
2023-03-04T03:40:06.820Z,15.85
2023-03-04T03:42:34.501Z,19.08
2023-03-04T03:45:04.027Z,24.83
2023-03-04T03:47:31.540Z,20.13
2023-03-04T03:49:58.872Z,17.92
2023-03-04T03:52:27.182Z,22.27
2023-03-04T03:54:54.391Z,21.23
2023-03-04T03:57:22.829Z,18.08
2023-03-04T03:59:50.037Z,22.10
2023-03-04T04:02:17.475Z,26.08
2023-03-04T04:04:45.541Z,26.52
2023-03-04T04:07:12.747Z,18.83
2023-03-04T04:09:40.409Z,20.13
2023-03-04T04:12:07.960Z,20.85
2023-03-04T04:14:38.539Z,23.90
2023-03-04T04:17:06.557Z,22.45
2023-03-04T04:19:34.000Z,25.10
2023-03-04T04:22:01.678Z,28.35
2023-03-04T04:24:29.478Z,19.92
2023-03-04T04:29:27.807Z,22.05
2023-03-04T04:31:55.106Z,18.15
2023-03-04T04:34:22.495Z,18.25
2023-03-04T04:36:49.674Z,24.58
2023-03-04T04:39:16.931Z,24.20
2023-03-04T04:41:44.558Z,21.05
2023-03-04T04:44:12.050Z,20.42
2023-03-04T04:46:39.429Z,17.33
2023-03-04T04:49:06.958Z,23.67
2023-03-04T04:51:36.892Z,19.65
2023-03-04T04:54:04.454Z,26.58
2023-03-04T04:56:34.184Z,18.77
2023-03-04T04:59:03.420Z,17.40
2023-03-04T05:01:30.900Z,23.35
2023-03-04T05:03:58.707Z,26.45
2023-03-04T05:06:26.026Z,21.42
2023-03-04T05:08:55.653Z,18.77
2023-03-04T05:11:23.283Z,26.58
2023-03-04T05:13:51.605Z,27.95
2023-03-04T05:16:19.463Z,20.60
2023-03-04T05:18:47.319Z,20.50
2023-03-04T05:21:16.440Z,20.73
2023-03-04T05:23:44.517Z,20.35
2023-03-04T05:26:14.303Z,20.63
2023-03-04T05:28:41.872Z,21.27
2023-03-04T05:31:09.511Z,20.13
2023-03-04T05:33:37.727Z,22.15
2023-03-04T05:36:05.666Z,22.92
2023-03-04T05:38:33.021Z,20.00
2023-03-04T05:41:02.868Z,26.08
2023-03-04T05:43:31.161Z,20.10
2023-03-04T05:45:58.378Z,23.00
2023-03-04T05:48:25.673Z,20.13
2023-03-04T05:50:56.827Z,23.70
2023-03-04T05:53:24.527Z,17.38
2023-03-04T05:55:52.721Z,23.98
2023-03-04T05:58:20.468Z,25.95
2023-03-04T06:00:50.325Z,22.63
2023-03-04T06:03:19.007Z,24.15
2023-03-04T06:05:46.715Z,25.70
2023-03-04T06:08:14.094Z,21.95
2023-03-04T06:10:41.702Z,22.70
2023-03-04T06:13:11.670Z,28.83
2023-03-04T06:15:39.737Z,25.33
2023-03-04T06:18:07.702Z,21.60
2023-03-04T06:23:05.352Z,21.48
2023-03-04T06:25:32.590Z,24.80
2023-03-04T06:27:59.843Z,19.67
2023-03-04T06:30:27.467Z,21.70
2023-03-04T06:32:56.705Z,20.85
2023-03-04T06:35:23.994Z,17.95
2023-03-04T06:37:51.278Z,23.90
2023-03-04T06:40:20.333Z,21.60
2023-03-04T06:42:49.465Z,23.65
2023-03-04T06:45:18.879Z,24.05
2023-03-04T06:47:46.160Z,20.63
2023-03-04T06:50:13.545Z,20.05
2023-03-04T06:52:40.778Z,24.42
2023-03-04T06:55:08.556Z,19.98
2023-03-04T06:57:37.043Z,16.52
2023-03-04T07:00:04.668Z,21.75
2023-03-04T07:02:32.979Z,22.00
2023-03-04T07:05:00.235Z,19.88
2023-03-04T07:07:27.766Z,21.63
2023-03-04T07:09:54.954Z,15.73
2023-03-04T07:12:22.781Z,20.88
2023-03-04T07:14:50.049Z,19.20
2023-03-04T07:17:17.307Z,21.90
2023-03-04T07:19:44.758Z,25.80
2023-03-04T07:22:11.997Z,25.08
2023-03-04T07:24:39.967Z,17.20
2023-03-04T07:27:07.198Z,24.40
2023-03-04T07:29:34.690Z,18.83
2023-03-04T07:32:02.204Z,17.98
2023-03-04T07:34:29.902Z,18.73
2023-03-04T07:36:57.076Z,22.90
2023-03-04T07:39:28.799Z,20.48
2023-03-04T07:41:56.069Z,19.50
2023-03-04T07:44:23.367Z,16.60
2023-03-04T07:46:50.916Z,21.63
2023-03-04T07:49:18.156Z,15.90
2023-03-04T07:51:47.021Z,17.50
2023-03-04T07:54:14.490Z,22.05
2023-03-04T07:56:41.813Z,21.02
2023-03-04T07:59:09.013Z,18.55
2023-03-04T08:01:36.780Z,20.52
2023-03-04T08:04:05.134Z,22.83
2023-03-04T08:06:32.781Z,24.33
2023-03-04T08:09:06.493Z,20.60
2023-03-04T08:11:37.961Z,22.15
2023-03-04T08:14:05.520Z,17.55
2023-03-04T08:16:35.230Z,16.92
2023-03-04T08:19:03.521Z,22.77
2023-03-04T08:21:31.132Z,16.05
2023-03-04T08:24:01.667Z,18.38
2023-03-04T08:26:31.090Z,22.25
2023-03-04T08:28:58.620Z,22.45
2023-03-04T08:31:26.808Z,22.25
2023-03-04T08:33:55.843Z,16.45
2023-03-04T08:36:23.031Z,18.50
2023-03-04T08:38:50.992Z,15.63
2023-03-04T08:41:18.536Z,17.80
2023-03-04T08:43:45.815Z,21.45
2023-03-04T08:46:13.305Z,24.38
2023-03-04T08:48:40.556Z,20.25
2023-03-04T08:51:14.515Z,17.38
2023-03-04T08:53:41.757Z,17.52
2023-03-04T08:56:09.846Z,18.20
2023-03-04T08:58:38.646Z,20.88
2023-03-04T09:01:09.361Z,23.30
2023-03-04T09:03:45.991Z,14.95
2023-03-04T09:06:17.255Z,17.58
2023-03-04T09:08:45.075Z,17.65
2023-03-04T09:11:17.489Z,18.27
2023-03-04T09:13:46.294Z,15.10
2023-03-04T09:16:15.305Z,17.23
2023-03-04T09:18:42.779Z,16.58
2023-03-04T09:21:11.970Z,15.57
2023-03-04T09:23:40.246Z,16.88
2023-03-04T09:26:26.890Z,18.85
2023-03-04T09:28:58.412Z,17.83
2023-03-04T09:31:26.154Z,14.50
2023-03-04T09:33:55.147Z,16.70
2023-03-04T09:36:22.560Z,16.00
2023-03-04T09:38:50.667Z,13.70
2023-03-04T09:41:25.936Z,13.57
2023-03-04T09:43:53.399Z,20.02
2023-03-04T09:46:37.306Z,14.43
2023-03-04T09:49:07.296Z,14.90
2023-03-04T09:51:44.713Z,13.05
2023-03-04T09:54:47.449Z,15.80
2023-03-04T09:57:48.947Z,14.00
2023-03-04T10:00:31.112Z,15.75
2023-03-04T10:03:10.666Z,14.32
2023-03-04T10:05:49.957Z,14.80
2023-03-04T10:08:38.367Z,16.83
2023-03-04T10:11:16.041Z,14.27
2023-03-04T10:14:01.950Z,15.55
2023-03-04T10:16:36.612Z,12.15
2023-03-04T10:19:28.240Z,15.43
2023-03-04T10:24:25.197Z,11.73
2023-03-04T10:26:53.820Z,17.80
2023-03-04T10:29:22.790Z,11.18
2023-03-04T10:31:50.504Z,10.68
2023-03-04T10:34:18.028Z,13.70
2023-03-04T10:37:01.980Z,18.83
2023-03-04T10:39:31.711Z,14.95
2023-03-04T10:42:02.825Z,13.32
2023-03-04T10:44:31.429Z,12.10
2023-03-04T10:46:58.888Z,13.38
2023-03-04T10:49:27.459Z,14.75
2023-03-04T10:52:01.938Z,21.17
2023-03-04T10:54:32.106Z,13.90
2023-03-04T10:57:01.613Z,11.43
2023-03-04T10:59:41.021Z,11.07
2023-03-04T11:02:24.165Z,10.85
2023-03-04T11:05:07.807Z,12.68
2023-03-04T11:08:02.381Z,9.60
2023-03-04T11:10:39.523Z,13.45
2023-03-04T11:13:11.348Z,14.52
2023-03-04T11:15:58.804Z,21.27
2023-03-04T11:18:38.898Z,15.88
2023-03-04T11:21:06.294Z,19.60
2023-03-04T11:23:44.219Z,11.82
2023-03-04T11:26:28.151Z,20.10
2023-03-04T11:29:07.375Z,16.52
2023-03-04T11:31:51.232Z,16.10
2023-03-04T11:34:31.152Z,12.52
2023-03-04T11:37:18.071Z,16.42
2023-03-04T11:40:14.431Z,12.63
2023-03-04T11:42:43.230Z,15.63
2023-03-04T11:45:28.469Z,14.02
2023-03-04T11:48:04.091Z,14.98
2023-03-04T11:50:49.918Z,12.68
2023-03-04T11:53:41.721Z,9.57
2023-03-04T11:56:38.202Z,9.70
2023-03-04T11:59:05.310Z,8.60
2023-03-04T12:01:32.663Z,11.65
2023-03-04T12:04:00.233Z,12.32
2023-03-04T12:07:09.371Z,9.40
2023-03-04T12:10:02.065Z,10.98
2023-03-04T12:13:04.032Z,9.88
2023-03-04T12:15:56.690Z,16.27
2023-03-04T12:18:36.047Z,14.35
2023-03-04T12:21:45.644Z,13.10
2023-03-04T12:24:39.688Z,10.48
2023-03-04T12:27:44.698Z,9.75
2023-03-04T12:30:33.503Z,13.18
2023-03-04T12:33:32.850Z,12.20
2023-03-04T12:36:32.935Z,17.02
2023-03-04T12:39:14.699Z,18.05
2023-03-04T12:41:52.254Z,11.40
2023-03-04T12:44:20.342Z,13.30
2023-03-04T12:47:25.111Z,11.45
2023-03-04T12:49:56.734Z,16.50
2023-03-04T12:52:36.877Z,9.73
2023-03-04T12:55:09.409Z,11.93
2023-03-04T12:57:36.700Z,14.77
2023-03-04T13:00:13.011Z,12.52
2023-03-04T13:03:17.812Z,13.55
2023-03-04T13:06:17.290Z,13.10
2023-03-04T13:09:01.825Z,15.48
2023-03-04T13:11:56.092Z,14.13
2023-03-04T13:14:25.660Z,13.25
2023-03-04T13:17:01.977Z,11.02
2023-03-04T13:20:08.194Z,12.05
2023-03-04T13:22:43.402Z,13.00
2023-03-04T13:25:42.952Z,11.55
2023-03-04T13:28:19.802Z,14.80
2023-03-04T13:30:59.325Z,12.10
2023-03-04T13:33:26.421Z,11.95
2023-03-04T13:36:04.336Z,10.07
2023-03-04T13:38:36.327Z,12.00
2023-03-04T13:41:41.136Z,15.85
2023-03-04T13:44:31.912Z,11.73
2023-03-04T13:46:59.161Z,16.27
2023-03-04T13:49:26.593Z,11.48
2023-03-04T13:51:54.017Z,14.70
2023-03-04T13:54:33.910Z,13.63
2023-03-04T13:57:01.023Z,17.25
2023-03-04T13:59:56.464Z,14.13
2023-03-04T14:02:26.009Z,12.18
2023-03-04T14:04:54.044Z,9.88
2023-03-04T14:07:34.106Z,12.30
2023-03-04T14:10:07.644Z,11.95
2023-03-04T14:12:43.808Z,12.98
2023-03-04T14:15:14.186Z,12.27
2023-03-04T14:17:47.402Z,10.40
2023-03-04T14:22:59.283Z,15.10
2023-03-04T14:25:31.613Z,13.75
2023-03-04T14:28:07.010Z,15.70
2023-03-04T14:30:42.763Z,13.35
2023-03-04T14:33:19.647Z,14.90
2023-03-04T14:35:48.519Z,16.77
2023-03-04T14:38:19.358Z,15.20
2023-03-04T14:40:48.988Z,19.80
2023-03-04T14:43:18.684Z,18.55
2023-03-04T14:45:47.330Z,18.75
2023-03-04T14:48:35.206Z,16.85
2023-03-04T14:51:02.536Z,20.92
2023-03-04T14:53:31.043Z,13.85
2023-03-04T14:56:02.263Z,11.30
2023-03-04T14:58:37.207Z,14.15
2023-03-04T15:01:19.041Z,9.32
2023-03-04T15:04:00.683Z,18.15
2023-03-04T15:06:39.110Z,17.90
2023-03-04T15:09:08.927Z,17.35
2023-03-04T15:11:48.720Z,17.55
2023-03-04T15:14:43.029Z,13.70
2023-03-04T15:17:30.266Z,18.67
2023-03-04T15:20:18.977Z,8.65
2023-03-04T15:23:07.370Z,18.23
2023-03-04T15:25:34.727Z,14.13
2023-03-04T15:28:03.019Z,10.30
2023-03-04T15:30:34.305Z,17.80
2023-03-04T15:33:01.901Z,11.07
2023-03-04T15:35:30.995Z,20.15
2023-03-04T15:37:58.791Z,21.45
2023-03-04T15:40:29.437Z,13.10
2023-03-04T15:42:57.387Z,15.23
2023-03-04T15:45:31.107Z,15.23
2023-03-04T15:47:58.635Z,17.23
2023-03-04T15:50:29.911Z,19.27
2023-03-04T15:52:58.881Z,16.90
2023-03-04T15:55:33.482Z,16.08
2023-03-04T15:58:00.770Z,13.27
2023-03-04T16:00:28.067Z,16.45
2023-03-04T16:02:55.620Z,14.40
2023-03-04T16:05:22.956Z,16.77
2023-03-04T16:07:50.863Z,23.02
2023-03-04T16:10:26.795Z,17.95
2023-03-04T16:12:54.599Z,11.48
2023-03-04T16:15:29.564Z,14.27
2023-03-04T16:17:57.088Z,16.80
2023-03-04T16:20:25.882Z,20.30
2023-03-04T16:22:59.278Z,15.00
2023-03-04T16:25:26.668Z,14.23
2023-03-04T16:27:56.443Z,14.43
2023-03-04T16:30:25.479Z,13.90
2023-03-04T16:32:52.946Z,15.82
2023-03-04T16:35:20.329Z,11.88
2023-03-04T16:37:47.590Z,15.02
2023-03-04T16:40:16.443Z,13.60
2023-03-04T16:42:43.994Z,18.33
2023-03-04T16:45:37.925Z,15.32
2023-03-04T16:48:05.915Z,12.95
2023-03-04T16:50:33.592Z,17.88
2023-03-04T16:53:00.896Z,18.02
2023-03-04T16:55:28.958Z,15.57
2023-03-04T16:57:57.775Z,16.85
2023-03-04T17:00:25.896Z,17.52
2023-03-04T17:02:57.851Z,16.40
2023-03-04T17:05:27.945Z,21.63
2023-03-04T17:07:55.702Z,15.93
2023-03-04T17:10:23.785Z,12.60
2023-03-04T17:12:51.985Z,20.08
2023-03-04T17:15:20.910Z,13.52
2023-03-04T17:17:48.180Z,15.15
2023-03-04T17:20:17.060Z,10.65
2023-03-04T17:22:45.249Z,12.63
2023-03-04T17:25:12.646Z,10.23
2023-03-04T17:27:40.680Z,16.33
2023-03-04T17:30:11.383Z,13.18
2023-03-04T17:32:40.782Z,12.23
2023-03-04T17:35:09.075Z,21.58
2023-03-04T17:37:36.526Z,11.77
2023-03-04T17:40:05.181Z,11.02
2023-03-04T17:42:32.652Z,12.38
2023-03-04T17:45:00.146Z,12.52
2023-03-04T17:47:27.446Z,18.08
2023-03-04T17:49:54.640Z,18.10
2023-03-04T17:52:21.910Z,20.90
2023-03-04T17:54:49.305Z,17.13
2023-03-04T17:57:16.585Z,17.58
2023-03-04T17:59:44.388Z,20.20
2023-03-04T18:02:14.841Z,18.98
2023-03-04T18:04:45.157Z,24.92
2023-03-04T18:07:12.464Z,24.92
2023-03-04T18:09:40.141Z,19.58
2023-03-04T18:12:07.848Z,15.13
2023-03-04T18:14:38.200Z,18.48
2023-03-04T18:17:05.779Z,14.65
2023-03-04T18:19:33.071Z,19.38
2023-03-04T18:22:01.004Z,26.40
2023-03-04T18:24:28.557Z,21.15
2023-03-04T18:26:56.864Z,15.63
2023-03-04T18:29:24.183Z,17.17
2023-03-04T18:31:51.579Z,18.05
2023-03-04T18:34:19.511Z,16.65
2023-03-04T18:36:47.727Z,15.57
2023-03-04T18:39:17.511Z,18.55
2023-03-04T18:41:45.333Z,17.48
2023-03-04T18:44:12.565Z,20.17
2023-03-04T18:46:45.061Z,16.90
2023-03-04T18:49:12.545Z,17.38
2023-03-04T18:51:39.806Z,21.35
2023-03-04T18:54:07.320Z,19.48
2023-03-04T18:56:44.542Z,18.30
2023-03-04T18:59:23.317Z,20.13
2023-03-04T19:01:51.289Z,17.45
2023-03-04T19:04:18.690Z,18.55
2023-03-04T19:06:45.980Z,20.60
2023-03-04T19:09:13.305Z,13.95
2023-03-04T19:11:40.530Z,19.58
2023-03-04T19:14:08.072Z,16.85
2023-03-04T19:16:35.794Z,17.98
2023-03-04T19:19:03.232Z,18.73
2023-03-04T19:21:38.141Z,19.65
2023-03-04T19:24:06.564Z,17.77
2023-03-04T19:26:34.023Z,18.40
2023-03-04T19:29:01.408Z,23.35
2023-03-04T19:31:28.929Z,23.63
2023-03-04T19:33:56.391Z,18.10
2023-03-04T19:36:25.392Z,20.50
2023-03-04T19:38:53.242Z,20.27
2023-03-04T19:41:20.597Z,16.13
2023-03-04T19:43:51.800Z,15.10
2023-03-04T19:46:20.433Z,16.45
2023-03-04T19:48:50.230Z,18.85
2023-03-04T19:51:27.637Z,20.52
2023-03-04T19:53:55.155Z,23.10
2023-03-04T19:56:22.535Z,18.40
2023-03-04T19:58:50.550Z,17.45
2023-03-04T20:01:27.660Z,23.88
2023-03-04T20:03:59.369Z,18.50
2023-03-04T20:06:27.145Z,19.55
2023-03-04T20:08:57.139Z,20.55
2023-03-04T20:11:24.528Z,17.73
2023-03-04T20:13:58.697Z,18.17
2023-03-04T20:16:26.460Z,18.50
2023-03-04T20:18:54.353Z,25.13
2023-03-04T20:21:21.625Z,19.95
2023-03-04T20:23:48.980Z,22.50
2023-03-04T20:26:16.228Z,17.38
2023-03-04T20:28:43.536Z,16.50
2023-03-04T20:31:24.969Z,16.55
2023-03-04T20:33:54.078Z,19.08
2023-03-04T20:36:22.665Z,19.38
2023-03-04T20:38:55.849Z,20.77
2023-03-04T20:41:29.385Z,30.90
2023-03-04T20:44:02.567Z,17.95
2023-03-04T20:46:43.202Z,19.55
2023-03-04T20:49:23.526Z,17.13
2023-03-04T20:51:52.242Z,20.58
2023-03-04T20:54:20.019Z,19.67
2023-03-04T20:56:47.683Z,19.75
2023-03-04T20:59:14.978Z,21.00
2023-03-04T21:01:43.054Z,22.17
2023-03-04T21:04:10.758Z,21.98
2023-03-04T21:06:38.792Z,22.77
2023-03-04T21:09:11.597Z,24.55
2023-03-04T21:11:42.070Z,27.60
2023-03-04T21:14:16.290Z,18.30
2023-03-04T21:16:44.400Z,22.17
2023-03-04T21:19:16.956Z,17.33
2023-03-04T21:21:47.813Z,20.77
2023-03-04T21:24:17.294Z,20.08
2023-03-04T21:26:45.468Z,25.73
2023-03-04T21:29:17.174Z,27.25
2023-03-04T21:31:46.493Z,23.17
2023-03-04T21:34:36.529Z,27.73
2023-03-04T21:37:04.146Z,24.77
2023-03-04T21:39:32.782Z,26.98
2023-03-04T21:42:00.181Z,24.35
2023-03-04T21:44:45.147Z,20.90
2023-03-04T21:47:15.905Z,20.92
2023-03-04T21:49:43.338Z,26.95
2023-03-04T21:52:10.601Z,25.40
2023-03-04T21:54:37.910Z,27.40
2023-03-04T21:57:11.732Z,23.65
2023-03-04T21:59:39.145Z,22.08
2023-03-04T22:02:07.504Z,26.05
2023-03-04T22:04:35.554Z,24.83
2023-03-04T22:07:02.823Z,19.77
2023-03-04T22:09:34.939Z,28.60
2023-03-04T22:12:02.170Z,25.00
2023-03-04T22:14:29.693Z,22.33
2023-03-04T22:16:58.251Z,27.55
2023-03-04T22:19:27.763Z,32.10
2023-03-04T22:21:56.176Z,32.90
2023-03-04T22:24:23.936Z,30.55
2023-03-04T22:26:51.444Z,30.77
2023-03-04T22:29:18.691Z,30.02
2023-03-04T22:31:46.075Z,22.85
2023-03-04T22:34:19.844Z,32.05
2023-03-04T22:36:47.263Z,30.65
2023-03-04T22:39:16.265Z,28.75
2023-03-04T22:41:43.748Z,28.75
2023-03-04T22:44:11.311Z,28.65
2023-03-04T22:46:38.709Z,34.40
2023-03-04T22:49:10.794Z,27.35
2023-03-04T22:51:41.092Z,31.05
2023-03-04T22:54:10.768Z,29.33
2023-03-04T22:56:39.228Z,38.58
2023-03-04T22:59:06.573Z,35.65
2023-03-04T23:01:36.476Z,32.38
2023-03-04T23:04:04.678Z,39.03
2023-03-04T23:06:32.698Z,32.17
2023-03-04T23:09:05.585Z,31.02
2023-03-04T23:11:35.392Z,39.50
2023-03-04T23:14:06.446Z,26.33
2023-03-04T23:16:37.449Z,29.52
2023-03-04T23:19:05.708Z,30.15
2023-03-04T23:21:33.999Z,32.40
2023-03-04T23:24:02.539Z,31.90
2023-03-04T23:26:35.045Z,32.67
2023-03-04T23:29:04.068Z,29.50
2023-03-04T23:31:32.121Z,30.30
2023-03-04T23:33:59.682Z,34.75
2023-03-04T23:36:28.750Z,41.10
2023-03-04T23:38:56.054Z,31.63
2023-03-04T23:41:24.991Z,30.38
2023-03-04T23:43:52.920Z,38.22
2023-03-04T23:46:20.333Z,34.50
2023-03-04T23:48:48.020Z,31.17
2023-03-04T23:51:23.684Z,27.95
2023-03-04T23:53:51.001Z,30.77
2023-03-04T23:56:20.604Z,33.50
2023-03-04T23:58:48.233Z,38.15
